createdAt,value
2023-02-02T00:00:52.477Z,101924.06
2023-02-02T00:02:56.638Z,101922.38
2023-02-02T00:05:00.710Z,101924.19
2023-02-02T00:07:06.490Z,101929.53
2023-02-02T00:09:12.685Z,101913.75
2023-02-02T00:11:19.056Z,101933.16
2023-02-02T00:13:23.122Z,101924.44
2023-02-02T00:15:27.162Z,101929.75
2023-02-02T00:17:31.160Z,101923.66
2023-02-02T00:19:35.169Z,101919.34
2023-02-02T00:21:39.756Z,101929.97
2023-02-02T00:23:43.670Z,101917.75
2023-02-02T00:25:51.859Z,101923.16
2023-02-02T00:27:57.352Z,101928.44
2023-02-02T00:30:01.300Z,101930.31
2023-02-02T00:32:05.130Z,101919.81
2023-02-02T00:34:08.885Z,101933.06
2023-02-02T00:36:13.216Z,101929.56
2023-02-02T00:38:17.088Z,101937.50
2023-02-02T00:40:20.848Z,101927.78
2023-02-02T00:42:24.727Z,101922.50
2023-02-02T00:44:47.272Z,101923.34
2023-02-02T00:46:51.200Z,101916.38
2023-02-02T00:48:55.284Z,101924.22
2023-02-02T00:50:59.122Z,101921.53
2023-02-02T00:53:03.398Z,101921.47
2023-02-02T00:55:08.923Z,101931.97
2023-02-02T00:57:14.284Z,101928.31
2023-02-02T00:59:17.732Z,101933.53
2023-02-02T01:01:24.273Z,101922.84
2023-02-02T01:03:27.717Z,101921.88
2023-02-02T01:05:31.423Z,101920.97
2023-02-02T01:07:34.906Z,101914.72
2023-02-02T01:09:38.295Z,101917.31
2023-02-02T01:11:41.766Z,101915.41
2023-02-02T01:13:45.427Z,101917.16
2023-02-02T01:15:49.397Z,101911.81
2023-02-02T01:17:54.336Z,101916.16
2023-02-02T01:19:57.868Z,101915.25
2023-02-02T01:22:03.296Z,101921.44
2023-02-02T01:24:07.597Z,101922.31
2023-02-02T01:26:12.999Z,101915.31
2023-02-02T01:28:16.422Z,101916.16
2023-02-02T01:30:19.947Z,101923.16
2023-02-02T01:32:23.372Z,101909.97
2023-02-02T01:34:28.332Z,101908.13
2023-02-02T01:36:31.735Z,101903.69
2023-02-02T01:38:35.517Z,101904.56
2023-02-02T01:40:38.954Z,101901.06
2023-02-02T01:42:42.364Z,101908.13
2023-02-02T01:45:20.945Z,101902.84
2023-02-02T01:47:29.687Z,101898.34
2023-02-02T01:49:34.519Z,101903.56
2023-02-02T01:51:44.296Z,101904.41
2023-02-02T01:53:51.115Z,101899.06
2023-02-02T01:55:54.887Z,101892.88
2023-02-02T01:58:01.634Z,101897.19
2023-02-02T02:00:10.228Z,101902.44
2023-02-02T02:02:19.802Z,101905.03
2023-02-02T02:04:25.729Z,101900.53
2023-02-02T02:06:30.820Z,101893.50
2023-02-02T02:08:36.737Z,101901.41
2023-02-02T02:10:40.177Z,101896.97
2023-02-02T02:12:43.870Z,101893.44
2023-02-02T02:15:09.382Z,101894.22
2023-02-02T02:17:26.625Z,101895.13
2023-02-02T02:20:19.937Z,101887.16
2023-02-02T02:22:50.164Z,101885.31
2023-02-02T02:25:46.184Z,101888.81
2023-02-02T02:28:24.584Z,101888.78
2023-02-02T02:31:07.932Z,101875.56
2023-02-02T02:33:20.601Z,101881.63
2023-02-02T02:35:34.559Z,101871.06
2023-02-02T02:37:46.672Z,101872.81
2023-02-02T02:39:56.470Z,101863.00
2023-02-02T02:42:06.352Z,101863.84
2023-02-02T02:44:13.920Z,101854.13
2023-02-02T02:46:17.975Z,101854.94
2023-02-02T02:48:22.989Z,101851.41
2023-02-02T02:50:26.908Z,101844.34
2023-02-02T02:52:30.845Z,101845.16
2023-02-02T02:54:38.061Z,101843.31
2023-02-02T02:56:56.834Z,101844.16
2023-02-02T02:59:05.752Z,101847.63
2023-02-02T03:01:15.357Z,101850.25
2023-02-02T03:03:33.455Z,101849.28
2023-02-02T03:05:45.246Z,101857.19
2023-02-02T03:07:53.457Z,101852.75
2023-02-02T03:09:59.441Z,101843.84
2023-02-02T03:12:04.051Z,101842.91
2023-02-02T03:14:09.775Z,101845.56
2023-02-02T03:16:13.304Z,101829.72
2023-02-02T03:18:20.868Z,101835.84
2023-02-02T03:20:25.757Z,101841.06
2023-02-02T03:22:29.068Z,101833.94
2023-02-02T03:24:32.512Z,101848.84
2023-02-02T03:26:36.364Z,101847.09
2023-02-02T03:28:39.848Z,101852.31
2023-02-02T03:30:44.819Z,101849.59
2023-02-02T03:32:48.376Z,101848.63
2023-02-02T03:34:51.935Z,101852.13
2023-02-02T03:36:57.376Z,101845.91
2023-02-02T03:39:00.848Z,101854.72
2023-02-02T03:41:04.365Z,101849.38
2023-02-02T03:43:07.831Z,101850.22
2023-02-02T03:45:12.391Z,101851.06
2023-02-02T03:47:15.884Z,101851.88
2023-02-02T03:49:21.012Z,101859.81
2023-02-02T03:51:24.714Z,101858.91
2023-02-02T03:53:29.611Z,101860.59
2023-02-02T03:55:33.064Z,101856.19
2023-02-02T03:57:36.600Z,101866.75
2023-02-02T03:59:40.146Z,101857.94
2023-02-02T04:01:43.682Z,101867.59
2023-02-02T04:03:47.532Z,101857.91
2023-02-02T04:05:51.458Z,101866.75
2023-02-02T04:07:55.164Z,101857.94
2023-02-02T04:09:59.965Z,101855.31
2023-02-02T04:12:03.554Z,101853.59
2023-02-02T04:14:07.301Z,101854.53
2023-02-02T04:16:11.625Z,101846.59
2023-02-02T04:18:15.349Z,101854.53
2023-02-02T04:20:19.270Z,101852.72
2023-02-02T04:22:22.881Z,101849.22
2023-02-02T04:24:26.449Z,101854.53
2023-02-02T04:26:31.697Z,101841.25
2023-02-02T04:28:35.614Z,101845.59
2023-02-02T04:30:39.151Z,101843.88
2023-02-02T04:32:42.707Z,101849.09
2023-02-02T04:34:46.873Z,101844.69
2023-02-02T04:36:50.545Z,101854.38
2023-02-02T04:38:55.352Z,101843.81
2023-02-02T04:40:58.981Z,101847.38
2023-02-02T04:43:04.165Z,101850.00
2023-02-02T04:45:08.738Z,101846.47
2023-02-02T04:47:12.197Z,101842.91
2023-02-02T04:49:15.618Z,101838.53
2023-02-02T04:51:19.716Z,101840.38
2023-02-02T04:53:23.398Z,101835.94
2023-02-02T04:55:27.124Z,101831.56
2023-02-02T04:57:30.556Z,101834.28
2023-02-02T04:59:35.383Z,101830.72
2023-02-02T05:01:39.044Z,101835.19
2023-02-02T05:03:42.573Z,101840.50
2023-02-02T05:05:46.126Z,101842.34
2023-02-02T05:07:49.746Z,101835.34
2023-02-02T05:09:53.524Z,101855.63
2023-02-02T05:11:56.982Z,101851.19
2023-02-02T05:14:00.712Z,101847.63
2023-02-02T05:16:06.674Z,101855.50
2023-02-02T05:18:10.162Z,101858.09
2023-02-02T05:20:14.360Z,101859.94
2023-02-02T05:22:18.163Z,101861.78
2023-02-02T05:24:21.822Z,101866.22
2023-02-02T05:26:27.732Z,101869.84
2023-02-02T05:28:31.441Z,101860.31
2023-02-02T05:30:35.514Z,101853.44
2023-02-02T05:32:41.861Z,101842.09
2023-02-02T05:34:45.653Z,101848.34
2023-02-02T05:36:49.866Z,101841.44
2023-02-02T05:38:53.882Z,101845.91
2023-02-02T05:40:58.115Z,101833.66
2023-02-02T05:43:02.118Z,101836.31
2023-02-02T05:45:06.901Z,101839.84
2023-02-02T05:47:11.731Z,101839.78
2023-02-02T05:49:17.175Z,101823.91
2023-02-02T05:51:23.805Z,101822.97
2023-02-02T05:53:27.977Z,101827.41
2023-02-02T05:55:31.853Z,101823.03
2023-02-02T05:57:36.047Z,101832.75
2023-02-02T05:59:39.996Z,101824.00
2023-02-02T06:01:44.076Z,101828.38
2023-02-02T06:03:48.134Z,101821.28
2023-02-02T06:05:54.356Z,101828.31
2023-02-02T06:07:58.414Z,101824.69
2023-02-02T06:10:02.278Z,101825.50
2023-02-02T06:12:06.586Z,101827.25
2023-02-02T06:14:10.560Z,101806.06
2023-02-02T06:16:14.318Z,101809.53
2023-02-02T06:18:18.411Z,101818.38
2023-02-02T06:20:22.658Z,101808.66
2023-02-02T06:22:28.165Z,101809.53
2023-02-02T06:24:33.063Z,101816.63
2023-02-02T06:26:36.850Z,101816.63
2023-02-02T06:28:40.468Z,101820.22
2023-02-02T06:30:45.778Z,101820.31
2023-02-02T06:32:49.672Z,101819.59
2023-02-02T06:34:53.892Z,101818.84
2023-02-02T06:36:58.229Z,101811.97
2023-02-02T06:39:06.479Z,101816.41
2023-02-02T06:41:10.881Z,101812.88
2023-02-02T06:43:16.818Z,101815.66
2023-02-02T06:45:48.602Z,101816.69
2023-02-02T06:48:11.125Z,101805.38
2023-02-02T06:50:15.585Z,101815.16
2023-02-02T06:52:20.518Z,101813.44
2023-02-02T06:54:26.317Z,101819.56
2023-02-02T06:56:31.054Z,101807.31
2023-02-02T06:58:36.251Z,101801.06
2023-02-02T07:00:40.419Z,101818.66
2023-02-02T07:02:47.610Z,101803.69
2023-02-02T07:04:52.955Z,101812.47
2023-02-02T07:06:57.019Z,101814.19
2023-02-02T07:09:03.508Z,101811.53
2023-02-02T07:11:13.485Z,101812.47
2023-02-02T07:13:20.328Z,101811.53
2023-02-02T07:15:24.471Z,101802.75
2023-02-02T07:17:28.613Z,101815.94
2023-02-02T07:19:33.061Z,101816.81
2023-02-02T07:21:37.244Z,101808.91
2023-02-02T07:23:41.371Z,101806.25
2023-02-02T07:25:45.355Z,101816.91
2023-02-02T07:27:54.707Z,101822.22
2023-02-02T07:29:58.830Z,101826.56
2023-02-02T07:32:03.176Z,101810.72
2023-02-02T07:34:07.981Z,101826.56
2023-02-02T07:36:12.708Z,101823.09
2023-02-02T07:38:17.012Z,101819.56
2023-02-02T07:40:21.709Z,101814.28
2023-02-02T07:42:25.696Z,101816.00
2023-02-02T07:44:31.799Z,101823.03
2023-02-02T07:46:36.170Z,101823.78
2023-02-02T07:48:42.384Z,101817.63
2023-02-02T07:50:46.816Z,101819.41
2023-02-02T07:52:51.530Z,101808.91
2023-02-02T07:55:13.637Z,101823.03
2023-02-02T07:57:19.529Z,101820.38
2023-02-02T07:59:23.982Z,101814.28
2023-02-02T08:01:30.299Z,101809.06
2023-02-02T08:03:34.882Z,101819.69
2023-02-02T08:05:39.333Z,101824.06
2023-02-02T08:07:43.745Z,101820.50
2023-02-02T08:09:49.377Z,101832.84
2023-02-02T08:11:53.590Z,101828.44
2023-02-02T08:13:59.233Z,101818.72
2023-02-02T08:16:02.891Z,101827.47
2023-02-02T08:18:08.403Z,101826.44
2023-02-02T08:20:14.171Z,101831.63
2023-02-02T08:22:20.006Z,101829.78
2023-02-02T08:24:24.315Z,101827.06
2023-02-02T08:26:29.962Z,101830.47
2023-02-02T08:28:33.813Z,101832.13
2023-02-02T08:30:37.800Z,101826.78
2023-02-02T08:32:41.904Z,101823.16
2023-02-02T08:34:52.133Z,101833.72
2023-02-02T08:36:55.875Z,101828.38
2023-02-02T08:39:04.197Z,101833.66
2023-02-02T08:41:09.963Z,101829.22
2023-02-02T08:43:13.670Z,101832.75
2023-02-02T08:46:03.889Z,101831.75
2023-02-02T08:47:56.088Z,101835.25
2023-02-02T08:50:12.263Z,101831.69
2023-02-02T08:52:16.181Z,101832.47
2023-02-02T08:54:20.068Z,101852.69
2023-02-02T08:56:24.507Z,101840.34
2023-02-02T08:58:28.133Z,101846.41
2023-02-02T09:00:31.593Z,101850.66
2023-02-02T09:02:35.509Z,101856.69
2023-02-02T09:04:39.085Z,101856.47
2023-02-02T09:06:44.649Z,101865.03
2023-02-02T09:08:49.005Z,101867.47
2023-02-02T09:10:52.829Z,101864.78
2023-02-02T09:12:56.618Z,101866.41
2023-02-02T09:15:00.567Z,101858.47
2023-02-02T09:17:04.315Z,101880.38
2023-02-02T09:19:08.755Z,101869.75
2023-02-02T09:21:15.184Z,101867.97
2023-02-02T09:23:26.411Z,101870.50
2023-02-02T09:25:29.648Z,101888.00
2023-02-02T09:27:38.292Z,101888.78
2023-02-02T09:29:41.964Z,101889.53
2023-02-02T09:31:47.146Z,101881.53
2023-02-02T09:33:50.793Z,101879.72
2023-02-02T09:35:54.403Z,101890.00
2023-02-02T09:37:58.445Z,101895.16
2023-02-02T09:40:03.851Z,101896.81
2023-02-02T09:42:33.754Z,101906.50
2023-02-02T09:44:59.005Z,101895.00
2023-02-02T09:47:17.257Z,101900.34
2023-02-02T09:49:26.091Z,101902.19
2023-02-02T09:51:36.714Z,101888.19
2023-02-02T09:53:55.305Z,101897.03
2023-02-02T09:56:05.470Z,101889.09
2023-02-02T09:58:16.063Z,101900.59
2023-02-02T10:00:28.927Z,101896.22
2023-02-02T10:02:39.003Z,101904.28
2023-02-02T10:04:47.711Z,101892.88
2023-02-02T10:06:54.254Z,101891.97
2023-02-02T10:09:03.266Z,101893.72
2023-02-02T10:11:29.120Z,101908.81
2023-02-02T10:13:38.164Z,101911.44
2023-02-02T10:15:49.386Z,101911.44
2023-02-02T10:17:59.013Z,101915.84
2023-02-02T10:20:07.707Z,101923.72
2023-02-02T10:22:18.560Z,101931.59
2023-02-02T10:24:25.495Z,101930.75
2023-02-02T10:26:38.148Z,101926.38
2023-02-02T10:28:54.607Z,101924.59
2023-02-02T10:31:02.490Z,101930.66
2023-02-02T10:33:11.487Z,101935.03
2023-02-02T10:35:30.977Z,101924.47
2023-02-02T10:37:42.526Z,101930.59
2023-02-02T10:40:03.774Z,101934.91
2023-02-02T10:42:20.780Z,101942.00
2023-02-02T10:44:33.428Z,101934.91
2023-02-02T10:46:41.607Z,101930.50
2023-02-02T10:48:48.067Z,101930.50
2023-02-02T10:50:55.787Z,101919.84
2023-02-02T10:53:05.012Z,101930.38
2023-02-02T10:55:21.821Z,101923.09
2023-02-02T10:57:44.275Z,101919.50
2023-02-02T10:59:58.183Z,101931.69
2023-02-02T11:02:11.702Z,101929.84
2023-02-02T11:04:41.975Z,101928.94
2023-02-02T11:06:51.783Z,101924.41
2023-02-02T11:08:59.652Z,101933.25
2023-02-02T11:11:13.419Z,101931.44
2023-02-02T11:13:29.183Z,101934.16
2023-02-02T11:15:33.103Z,101936.91
2023-02-02T11:17:37.872Z,101944.00
2023-02-02T11:19:41.580Z,101933.56
2023-02-02T11:21:48.738Z,101937.13
2023-02-02T11:24:03.252Z,101935.44
2023-02-02T11:26:07.536Z,101920.47
2023-02-02T11:28:19.679Z,101917.81
2023-02-02T11:30:31.799Z,101919.59
2023-02-02T11:32:35.679Z,101904.44
2023-02-02T11:34:39.278Z,101903.53
2023-02-02T11:36:45.423Z,101905.28
2023-02-02T11:38:49.042Z,101909.66
2023-02-02T11:40:56.899Z,101912.25
2023-02-02T11:43:02.994Z,101921.00
2023-02-02T11:45:07.344Z,101926.31
2023-02-02T11:47:23.508Z,101920.19
2023-02-02T11:49:27.702Z,101929.84
2023-02-02T11:51:32.601Z,101924.50
2023-02-02T11:53:40.540Z,101924.50
2023-02-02T11:55:45.503Z,101926.16
2023-02-02T11:58:18.593Z,101915.50
2023-02-02T12:00:27.555Z,101920.72
2023-02-02T12:02:34.161Z,101924.03
2023-02-02T12:04:37.916Z,101920.47
2023-02-02T12:06:41.539Z,101913.31
2023-02-02T12:08:45.102Z,101911.41
2023-02-02T12:10:54.839Z,101916.56
2023-02-02T12:13:04.528Z,101911.19
2023-02-02T12:15:20.627Z,101898.69
2023-02-02T12:17:39.147Z,101899.47
2023-02-02T12:20:07.684Z,101895.06
2023-02-02T12:22:27.132Z,101912.63
2023-02-02T12:24:36.385Z,101893.19
2023-02-02T12:26:42.895Z,101896.66
2023-02-02T12:29:26.770Z,101895.72
2023-02-02T12:31:41.524Z,101896.50
2023-02-02T12:33:54.981Z,101894.66
2023-02-02T12:36:33.783Z,101866.47
2023-02-02T12:38:58.432Z,101891.94
2023-02-02T12:41:24.067Z,101882.19
2023-02-02T12:43:39.540Z,101863.59
2023-02-02T12:46:02.301Z,101864.47
2023-02-02T12:48:15.677Z,101875.84
2023-02-02T12:50:31.731Z,101866.97
2023-02-02T12:52:53.141Z,101869.69
2023-02-02T12:55:19.574Z,101863.44
2023-02-02T12:57:32.195Z,101870.53
2023-02-02T13:00:04.797Z,101871.47
2023-02-02T13:02:22.820Z,101862.69
2023-02-02T13:04:51.090Z,101857.53
2023-02-02T13:07:33.518Z,101854.88
2023-02-02T13:09:47.957Z,101852.94
2023-02-02T13:11:56.123Z,101850.16
2023-02-02T13:14:04.535Z,101848.28
2023-02-02T13:16:13.261Z,101849.09
2023-02-02T13:18:21.469Z,101852.44
2023-02-02T13:20:42.644Z,101848.81
2023-02-02T13:22:51.379Z,101839.78
2023-02-02T13:25:02.018Z,101850.16
2023-02-02T13:27:09.177Z,101849.16
2023-02-02T13:29:25.027Z,101853.38
2023-02-02T13:31:35.893Z,101853.34
2023-02-02T13:33:40.800Z,101852.31
2023-02-02T13:35:53.647Z,101850.47
2023-02-02T13:38:04.660Z,101852.03
2023-02-02T13:40:27.163Z,101855.47
2023-02-02T13:42:42.327Z,101857.03
2023-02-02T13:44:51.942Z,101842.88
2023-02-02T13:47:12.301Z,101839.44
2023-02-02T13:49:19.958Z,101857.03
2023-02-02T13:51:57.639Z,101856.25
2023-02-02T13:54:47.533Z,101851.88
2023-02-02T13:57:00.100Z,101855.34
2023-02-02T13:59:19.392Z,101847.31
2023-02-02T14:01:25.506Z,101840.38
2023-02-02T14:03:38.908Z,101837.72
2023-02-02T14:05:43.541Z,101844.88
2023-02-02T14:07:49.767Z,101830.84
2023-02-02T14:09:53.368Z,101853.88
2023-02-02T14:12:01.563Z,101838.16
2023-02-02T14:14:29.227Z,101846.16
2023-02-02T14:16:52.395Z,101835.56
2023-02-02T14:18:57.264Z,101831.13
2023-02-02T14:21:00.921Z,101819.59
2023-02-02T14:23:04.681Z,101826.63
2023-02-02T14:25:44.579Z,101830.94
2023-02-02T14:28:00.280Z,101829.13
2023-02-02T14:30:21.933Z,101835.28
2023-02-02T14:32:35.048Z,101826.47
2023-02-02T14:34:39.542Z,101832.69
2023-02-02T14:36:55.181Z,101822.25
2023-02-02T14:39:15.972Z,101810.09
2023-02-02T14:41:41.534Z,101813.03
2023-02-02T14:43:51.307Z,101812.38
2023-02-02T14:46:26.479Z,101818.53
2023-02-02T14:48:30.122Z,101821.25
2023-02-02T14:50:43.310Z,101819.53
2023-02-02T14:52:47.225Z,101824.81
2023-02-02T14:54:51.071Z,101811.56
2023-02-02T14:56:58.533Z,101824.75
2023-02-02T14:59:04.449Z,101826.63
2023-02-02T15:01:13.917Z,101809.94
2023-02-02T15:03:37.556Z,101812.66
2023-02-02T15:05:46.478Z,101785.47
2023-02-02T15:07:55.297Z,101782.91
2023-02-02T15:09:59.011Z,101784.66
2023-02-02T15:12:20.099Z,101783.03
2023-02-02T15:14:28.057Z,101775.06
2023-02-02T15:16:33.070Z,101776.03
2023-02-02T15:18:45.652Z,101780.44
2023-02-02T15:20:51.380Z,101795.50
2023-02-02T15:23:01.047Z,101813.13
2023-02-02T15:25:15.209Z,101820.25
2023-02-02T15:27:20.998Z,101831.69
2023-02-02T15:29:36.461Z,101833.47
2023-02-02T15:31:45.020Z,101855.47
2023-02-02T15:33:51.633Z,101843.00
2023-02-02T15:35:56.025Z,101851.75
2023-02-02T15:38:02.191Z,101851.69
2023-02-02T15:40:12.840Z,101862.19
2023-02-02T15:42:36.963Z,101858.63
2023-02-02T15:44:42.139Z,101870.00
2023-02-02T15:46:46.185Z,101871.63
2023-02-02T15:49:32.790Z,101857.47
2023-02-02T15:51:38.026Z,101860.13
2023-02-02T15:53:51.881Z,101856.59
2023-02-02T15:55:57.109Z,101864.63
2023-02-02T15:58:01.223Z,101862.03
2023-02-02T16:00:26.374Z,101865.69
2023-02-02T16:02:37.945Z,101866.59
2023-02-02T16:04:43.576Z,101875.59
2023-02-02T16:06:47.930Z,101881.00
2023-02-02T16:08:51.840Z,101875.69
2023-02-02T16:11:04.338Z,101856.38
2023-02-02T16:13:08.183Z,101854.72
2023-02-02T16:15:21.586Z,101860.94
2023-02-02T16:17:30.027Z,101850.44
2023-02-02T16:19:34.011Z,101854.94
2023-02-02T16:21:42.532Z,101855.00
2023-02-02T16:23:47.944Z,101849.78
2023-02-02T16:25:54.552Z,101841.81
2023-02-02T16:28:00.855Z,101836.53
2023-02-02T16:30:09.111Z,101850.66
2023-02-02T16:32:28.317Z,101845.44
2023-02-02T16:34:47.453Z,101846.28
2023-02-02T16:37:08.118Z,101834.84
2023-02-02T16:39:18.456Z,101833.97
2023-02-02T16:41:32.536Z,101836.53
2023-02-02T16:43:38.198Z,101854.22
2023-02-02T16:45:48.220Z,101855.94
2023-02-02T16:47:55.048Z,101848.00
2023-02-02T16:50:25.829Z,101858.59
2023-02-02T16:52:29.471Z,101862.09
2023-02-02T16:54:33.169Z,101870.03
2023-02-02T16:56:39.640Z,101869.25
2023-02-02T16:58:46.601Z,101869.25
2023-02-02T17:01:12.615Z,101867.53
2023-02-02T17:03:21.494Z,101869.25
2023-02-02T17:05:29.074Z,101864.88
2023-02-02T17:07:34.913Z,101871.09
2023-02-02T17:09:41.321Z,101873.88
2023-02-02T17:11:58.264Z,101871.34
2023-02-02T17:14:21.418Z,101869.59
2023-02-02T17:16:26.370Z,101863.41
2023-02-02T17:18:31.137Z,101872.22
2023-02-02T17:20:35.165Z,101869.59
2023-02-02T17:22:41.510Z,101875.66
2023-02-02T17:24:47.488Z,101889.78
2023-02-02T17:26:51.312Z,101887.13
2023-02-02T17:28:58.048Z,101896.81
2023-02-02T17:31:04.379Z,101892.53
2023-02-02T17:33:14.930Z,101900.47
2023-02-02T17:35:22.789Z,101908.41
2023-02-02T17:37:26.652Z,101911.94
2023-02-02T17:39:30.505Z,101914.66
2023-02-02T17:41:34.863Z,101919.94
2023-02-02T17:43:38.388Z,101927.06
2023-02-02T17:45:42.192Z,101930.66
2023-02-02T17:47:46.350Z,101934.31
2023-02-02T17:49:50.176Z,101927.28
2023-02-02T17:51:55.232Z,101937.00
2023-02-02T17:54:00.541Z,101948.53
2023-02-02T17:56:04.129Z,101941.50
2023-02-02T17:58:07.975Z,101945.00
2023-02-02T18:00:13.181Z,101944.09
2023-02-02T18:02:17.588Z,101940.66
2023-02-02T18:04:21.184Z,101948.63
2023-02-02T18:06:24.801Z,101941.56
2023-02-02T18:08:30.116Z,101928.41
2023-02-02T18:10:33.953Z,101935.47
2023-02-02T18:12:37.918Z,101936.34
2023-02-02T18:14:41.848Z,101939.84
2023-02-02T18:16:46.025Z,101943.34
2023-02-02T18:18:50.205Z,101944.22
2023-02-02T18:20:54.329Z,101954.81
2023-02-02T18:22:58.645Z,101971.47
2023-02-02T18:25:05.185Z,101948.53
2023-02-02T18:27:09.527Z,101967.84
2023-02-02T18:29:14.181Z,101969.56
2023-02-02T18:31:20.856Z,101978.28
2023-02-02T18:33:25.394Z,101980.94
2023-02-02T18:35:30.138Z,101989.69
2023-02-02T18:37:33.949Z,101994.91
2023-02-02T18:39:38.525Z,101979.84
2023-02-02T18:41:43.952Z,101996.50
2023-02-02T18:43:48.328Z,102001.72
2023-02-02T18:46:00.479Z,102000.81
2023-02-02T18:48:07.028Z,101998.09
2023-02-02T18:50:12.865Z,101995.38
2023-02-02T18:52:19.366Z,101997.09
2023-02-02T18:54:24.310Z,102004.19
2023-02-02T18:56:29.428Z,101988.25
2023-02-02T18:58:37.011Z,101991.81
2023-02-02T19:00:40.988Z,101987.38
2023-02-02T19:02:44.731Z,101983.78
2023-02-02T19:05:03.887Z,101993.53
2023-02-02T19:07:29.919Z,101986.50
2023-02-02T19:09:33.895Z,101976.84
2023-02-02T19:11:40.024Z,101977.78
2023-02-02T19:13:45.964Z,101976.13
2023-02-02T19:15:51.699Z,101977.13
2023-02-02T19:17:57.292Z,101979.88
2023-02-02T19:20:09.155Z,101987.94
2023-02-02T19:22:21.141Z,101974.72
2023-02-02T19:24:29.928Z,101991.59
2023-02-02T19:26:37.327Z,101988.94
2023-02-02T19:28:41.579Z,101995.28
2023-02-02T19:30:47.754Z,101983.91
2023-02-02T19:32:52.402Z,101993.63
2023-02-02T19:34:59.126Z,101994.56
2023-02-02T19:37:04.002Z,101995.50
2023-02-02T19:39:16.701Z,101981.50
2023-02-02T19:41:23.267Z,101978.88
2023-02-02T19:43:29.977Z,101987.78
2023-02-02T19:45:35.488Z,101985.16
2023-02-02T19:47:41.755Z,101972.06
2023-02-02T19:49:45.689Z,101982.63
2023-02-02T19:51:53.330Z,101970.31
2023-02-02T19:54:02.177Z,101967.75
2023-02-02T19:56:23.356Z,101966.91
2023-02-02T19:58:37.784Z,101953.66
2023-02-02T20:00:45.201Z,101962.53
2023-02-02T20:03:07.984Z,101953.72
2023-02-02T20:05:23.910Z,101952.91
2023-02-02T20:07:28.356Z,101959.13
2023-02-02T20:09:36.184Z,101957.44
2023-02-02T20:11:46.049Z,101953.06
2023-02-02T20:13:50.648Z,101959.19
2023-02-02T20:16:03.590Z,101952.13
2023-02-02T20:18:18.509Z,101955.56
2023-02-02T20:20:27.766Z,101944.97
2023-02-02T20:22:33.765Z,101954.66
2023-02-02T20:24:40.619Z,101959.88
2023-02-02T20:26:44.943Z,101971.13
2023-02-02T20:28:51.297Z,101975.44
2023-02-02T20:30:55.602Z,101992.97
2023-02-02T20:33:02.051Z,101993.75
2023-02-02T20:35:24.221Z,101994.56
2023-02-02T20:37:30.738Z,101991.84
2023-02-02T20:39:37.959Z,101983.91
2023-02-02T20:41:44.853Z,101983.84
2023-02-02T20:43:48.780Z,101992.56
2023-02-02T20:45:54.216Z,101987.28
2023-02-02T20:48:00.511Z,101981.94
2023-02-02T20:50:04.693Z,101993.31
2023-02-02T20:52:13.646Z,101994.16
2023-02-02T20:54:18.159Z,102008.28
2023-02-02T20:56:22.573Z,102030.31
2023-02-02T20:58:26.831Z,102015.22
2023-02-02T21:00:31.323Z,102013.38
2023-02-02T21:02:35.532Z,102019.53
2023-02-02T21:04:39.741Z,102015.94
2023-02-02T21:06:44.206Z,102018.50
2023-02-02T21:08:52.838Z,102018.41
2023-02-02T21:10:57.965Z,102014.84
2023-02-02T21:13:01.867Z,102021.84
2023-02-02T21:15:08.387Z,102018.22
2023-02-02T21:17:15.653Z,102005.84
2023-02-02T21:19:21.100Z,102019.94
2023-02-02T21:21:26.184Z,102012.84
2023-02-02T21:23:31.588Z,102012.00
2023-02-02T21:25:37.865Z,102010.28
2023-02-02T21:27:43.892Z,102009.44
2023-02-02T21:29:47.991Z,102000.59
2023-02-02T21:31:51.947Z,102005.03
2023-02-02T21:33:56.848Z,102000.66
2023-02-02T21:36:05.769Z,102012.13
2023-02-02T21:38:16.961Z,102014.84
2023-02-02T21:40:28.949Z,102003.38
2023-02-02T21:42:36.365Z,101995.50
2023-02-02T21:44:42.708Z,101984.94
2023-02-02T21:46:48.865Z,101976.16
2023-02-02T21:48:55.787Z,101980.56
2023-02-02T21:51:01.723Z,101981.47
2023-02-02T21:53:24.784Z,101995.66
2023-02-02T21:55:37.443Z,101995.59
2023-02-02T21:57:43.839Z,101996.50
2023-02-02T21:59:50.395Z,101996.44
2023-02-02T22:01:54.799Z,102009.66
2023-02-02T22:03:59.313Z,102005.25
2023-02-02T22:06:29.082Z,102006.09
2023-02-02T22:08:37.399Z,101999.97
2023-02-02T22:10:44.250Z,101995.66
2023-02-02T22:12:53.554Z,101994.84
2023-02-02T22:15:01.947Z,102001.19
2023-02-02T22:17:19.629Z,102008.41
2023-02-02T22:19:35.470Z,102000.50
2023-02-02T22:21:39.997Z,101992.72
2023-02-02T22:23:45.281Z,101996.28
2023-02-02T22:25:52.016Z,102001.56
2023-02-02T22:28:00.373Z,102005.03
2023-02-02T22:30:17.165Z,102001.41
2023-02-02T22:32:21.840Z,101996.03
2023-02-02T22:34:26.625Z,102002.09
2023-02-02T22:36:31.220Z,101998.47
2023-02-02T22:38:36.118Z,102002.78
2023-02-02T22:40:41.245Z,102001.78
2023-02-02T22:42:46.881Z,102006.09
2023-02-02T22:44:52.731Z,102017.53
2023-02-02T22:46:57.496Z,102006.91
2023-02-02T22:49:02.319Z,102017.44
2023-02-02T22:51:06.772Z,102012.13
2023-02-02T22:53:11.203Z,102014.72
2023-02-02T22:55:16.487Z,102016.44
2023-02-02T22:57:21.096Z,102012.00
2023-02-02T22:59:26.395Z,102022.53
2023-02-02T23:01:32.201Z,102009.28
2023-02-02T23:03:36.659Z,102011.00
2023-02-02T23:05:41.392Z,102005.72
2023-02-02T23:07:46.691Z,102005.72
2023-02-02T23:09:51.357Z,102017.22
2023-02-02T23:11:56.066Z,102015.44
2023-02-02T23:14:01.164Z,102014.59
2023-02-02T23:16:07.462Z,102021.59
2023-02-02T23:18:13.251Z,102030.47
2023-02-02T23:20:18.305Z,102022.47
2023-02-02T23:22:23.129Z,102012.78
2023-02-02T23:24:28.159Z,102010.09
2023-02-02T23:26:32.962Z,102023.34
2023-02-02T23:28:37.614Z,102013.66
2023-02-02T23:30:42.755Z,102020.72
2023-02-02T23:32:48.095Z,102016.44
2023-02-02T23:34:54.280Z,102026.16
2023-02-02T23:36:58.975Z,102027.88
2023-02-02T23:39:03.344Z,102043.72
2023-02-02T23:41:11.353Z,102045.50
2023-02-02T23:43:23.674Z,102044.63
2023-02-02T23:45:29.499Z,102049.84
2023-02-02T23:47:36.250Z,102049.81
2023-02-02T23:49:42.607Z,102034.84
2023-02-02T23:51:51.072Z,102048.00
2023-02-02T23:53:59.468Z,102033.94
2023-02-02T23:56:05.107Z,102048.88
2023-02-02T23:58:11.035Z,102049.81
